createdAt,value
2022-11-21T00:04:26.120Z,98760.38
2022-11-21T00:09:28.224Z,98762.34
2022-11-21T00:14:30.181Z,98761.66
2022-11-21T00:19:33.254Z,98753.47
2022-11-21T00:24:34.886Z,98759.53
2022-11-21T00:29:36.503Z,98748.47
2022-11-21T00:34:38.119Z,98764.88
2022-11-21T00:39:39.780Z,98764.03
2022-11-21T00:44:41.466Z,98772.34
2022-11-21T00:49:43.313Z,98757.13
2022-11-21T00:54:45.241Z,98756.59
2022-11-21T00:59:46.858Z,98746.06
2022-11-21T01:04:48.486Z,98747.72
2022-11-21T01:09:50.136Z,98727.03
2022-11-21T01:14:52.049Z,98727.75
2022-11-21T01:19:53.668Z,98724.78
2022-11-21T01:24:55.346Z,98730.97
2022-11-21T01:29:56.977Z,98740.22
2022-11-21T01:34:58.609Z,98731.59
2022-11-21T01:40:00.303Z,98735.88
2022-11-21T01:45:01.945Z,98743.06
2022-11-21T01:50:03.754Z,98738.97
2022-11-21T01:55:09.750Z,98736.31
2022-11-21T02:00:23.417Z,98735.28
2022-11-21T02:05:31.450Z,98734.72
2022-11-21T02:10:35.941Z,98748.44
2022-11-21T02:15:37.666Z,98749.53
2022-11-21T02:20:44.075Z,98748.03
2022-11-21T02:25:45.906Z,98763.56
2022-11-21T02:30:47.520Z,98762.63
2022-11-21T02:36:00.487Z,98755.41
2022-11-21T02:41:26.841Z,98762.47
2022-11-21T02:46:29.233Z,98757.03
2022-11-21T02:51:30.839Z,98752.13
2022-11-21T02:56:32.465Z,98762.22
2022-11-21T03:01:34.376Z,98759.69
2022-11-21T03:06:36.025Z,98758.59
2022-11-21T03:11:37.665Z,98756.91
2022-11-21T03:16:39.315Z,98764.19
2022-11-21T03:21:41.001Z,98762.19
2022-11-21T03:26:42.639Z,98770.44
2022-11-21T03:31:44.265Z,98777.22
2022-11-21T03:36:45.893Z,98782.13
2022-11-21T03:41:47.601Z,98788.00
2022-11-21T03:46:49.253Z,98789.28
2022-11-21T03:51:50.893Z,98787.09
2022-11-21T03:56:52.526Z,98789.81
2022-11-21T04:01:54.204Z,98793.53
2022-11-21T04:06:55.876Z,98790.69
2022-11-21T04:11:57.515Z,98792.44
2022-11-21T04:16:59.126Z,98803.47
2022-11-21T04:22:00.749Z,98799.31
2022-11-21T04:27:02.374Z,98799.13
2022-11-21T04:32:04.100Z,98805.69
2022-11-21T04:37:11.281Z,98801.81
2022-11-21T04:42:13.279Z,98797.16
2022-11-21T04:47:14.912Z,98803.75
2022-11-21T04:52:16.564Z,98814.41
2022-11-21T04:57:18.220Z,98826.03
2022-11-21T05:02:19.922Z,98817.25
2022-11-21T05:07:21.615Z,98820.09
2022-11-21T05:12:41.740Z,98818.09
2022-11-21T05:17:43.452Z,98817.91
2022-11-21T05:22:49.930Z,98816.41
2022-11-21T05:27:51.613Z,98816.03
2022-11-21T05:32:53.568Z,98804.28
2022-11-21T05:37:58.718Z,98798.22
2022-11-21T05:43:18.916Z,98797.44
2022-11-21T05:48:20.590Z,98797.69
2022-11-21T05:53:22.294Z,98799.63
2022-11-21T05:58:23.915Z,98796.13
2022-11-21T06:03:30.837Z,98805.56
2022-11-21T06:08:35.572Z,98814.69
2022-11-21T06:13:37.721Z,98807.91
2022-11-21T06:18:41.305Z,98804.56
2022-11-21T06:23:43.768Z,98804.56
2022-11-21T06:28:46.177Z,98823.19
2022-11-21T06:33:51.895Z,98822.16
2022-11-21T06:38:55.306Z,98814.19
2022-11-21T06:44:01.916Z,98811.16
2022-11-21T06:49:03.618Z,98807.34
2022-11-21T06:54:05.256Z,98803.72
2022-11-21T06:59:06.946Z,98806.31
2022-11-21T07:04:08.626Z,98803.97
2022-11-21T07:14:34.198Z,98809.41
2022-11-21T07:19:40.740Z,98816.59
2022-11-21T07:24:42.867Z,98831.53
2022-11-21T07:30:21.653Z,98827.81
2022-11-21T07:35:23.921Z,98832.16
2022-11-21T07:40:35.828Z,98820.44
2022-11-21T07:45:41.551Z,98814.69
2022-11-21T07:50:43.413Z,98811.56
2022-11-21T07:55:46.259Z,98822.97
2022-11-21T08:00:51.107Z,98819.56
2022-11-21T08:05:54.836Z,98820.31
2022-11-21T08:10:56.547Z,98822.28
2022-11-21T08:16:05.410Z,98821.25
2022-11-21T08:21:20.157Z,98814.84
2022-11-21T08:26:22.011Z,98810.66
2022-11-21T08:31:23.637Z,98811.97
2022-11-21T08:36:29.342Z,98807.72
2022-11-21T08:41:51.514Z,98798.31
2022-11-21T08:47:03.457Z,98804.22
2022-11-21T08:52:09.069Z,98795.81
2022-11-21T08:57:13.099Z,98792.25
2022-11-21T09:02:15.772Z,98799.53
2022-11-21T09:07:17.521Z,98811.69
2022-11-21T09:12:19.358Z,98815.13
2022-11-21T09:17:40.532Z,98815.38
2022-11-21T09:22:43.204Z,98806.38
2022-11-21T09:27:44.912Z,98805.03
2022-11-21T09:32:54.220Z,98809.19
2022-11-21T09:37:55.985Z,98792.31
2022-11-21T09:43:03.894Z,98795.69
2022-11-21T09:48:27.491Z,98791.22
2022-11-21T09:53:39.614Z,98781.66
2022-11-21T09:58:51.595Z,98788.31
2022-11-21T10:03:54.324Z,98780.72
2022-11-21T10:09:06.200Z,98766.84
2022-11-21T10:14:46.249Z,98765.81
2022-11-21T10:20:15.198Z,98752.69
2022-11-21T10:25:33.101Z,98736.13
2022-11-21T10:30:42.469Z,98726.31
2022-11-21T10:36:01.733Z,98731.81
2022-11-21T10:41:17.904Z,98723.53
2022-11-21T10:46:19.619Z,98717.78
2022-11-21T10:51:33.672Z,98707.25
2022-11-21T10:56:37.103Z,98709.09
2022-11-21T11:01:39.030Z,98698.91
2022-11-21T11:06:43.168Z,98689.13
2022-11-21T11:11:45.880Z,98684.59
2022-11-21T11:16:49.657Z,98673.75
2022-11-21T11:21:53.368Z,98679.94
2022-11-21T11:27:01.853Z,98666.91
2022-11-21T11:32:21.619Z,98649.72
2022-11-21T11:37:43.950Z,98647.34
2022-11-21T11:43:35.801Z,98641.25
2022-11-21T11:49:10.921Z,98636.69
2022-11-21T11:54:17.612Z,98624.66
2022-11-21T11:59:39.062Z,98612.19
2022-11-21T12:04:47.276Z,98603.69
2022-11-21T12:09:58.736Z,98599.72
2022-11-21T12:15:47.039Z,98581.78
2022-11-21T12:21:04.033Z,98579.25
2022-11-21T12:26:41.368Z,98573.06
2022-11-21T12:32:09.574Z,98575.16
2022-11-21T12:37:26.259Z,98572.00
2022-11-21T12:42:52.845Z,98568.91
2022-11-21T12:48:47.329Z,98556.47
2022-11-21T12:54:29.459Z,98540.41
2022-11-21T12:59:34.784Z,98528.97
2022-11-21T13:04:40.556Z,98517.41
2022-11-21T13:09:46.691Z,98512.28
2022-11-21T13:14:53.706Z,98504.41
2022-11-21T13:20:16.477Z,98503.13
2022-11-21T13:25:30.299Z,98483.06
2022-11-21T13:30:55.874Z,98473.44
2022-11-21T13:35:57.635Z,98470.94
2022-11-21T13:41:18.015Z,98460.84
2022-11-21T13:47:00.252Z,98441.56
2022-11-21T13:52:08.343Z,98431.94
2022-11-21T13:57:28.804Z,98410.44
2022-11-21T14:03:19.326Z,98400.06
2022-11-21T14:08:23.000Z,98391.41
2022-11-21T14:13:34.787Z,98392.94
2022-11-21T14:18:39.003Z,98381.81
2022-11-21T14:23:44.388Z,98382.63
2022-11-21T14:28:46.248Z,98369.81
2022-11-21T14:33:48.499Z,98354.78
2022-11-21T14:39:29.030Z,98335.72
2022-11-21T14:44:19.893Z,98347.28
2022-11-21T14:49:24.571Z,98363.47
2022-11-21T14:54:30.489Z,98361.59
2022-11-21T14:59:43.698Z,98351.16
2022-11-21T15:04:48.449Z,98325.81
2022-11-21T15:10:33.464Z,98312.28
2022-11-21T15:15:21.402Z,98301.44
2022-11-21T15:20:23.722Z,98284.31
2022-11-21T15:25:29.507Z,98267.81
2022-11-21T15:30:38.174Z,98259.50
2022-11-21T15:36:14.978Z,98237.38
2022-11-21T15:41:29.019Z,98207.38
2022-11-21T15:46:33.051Z,98208.31
2022-11-21T15:57:02.459Z,98203.56
2022-11-21T16:02:04.129Z,98200.97
2022-11-21T16:07:07.362Z,98198.38
2022-11-21T16:12:09.381Z,98190.69
2022-11-21T16:17:16.137Z,98173.03
2022-11-21T16:22:17.902Z,98143.78
2022-11-21T16:27:28.829Z,98159.56
2022-11-21T16:32:31.634Z,98148.59
2022-11-21T16:37:33.885Z,98137.56
2022-11-21T16:42:42.699Z,98120.34
2022-11-21T16:47:49.001Z,98107.50
2022-11-21T16:52:50.849Z,98100.03
2022-11-21T16:57:57.932Z,98106.25
2022-11-21T17:03:01.352Z,98099.00
2022-11-21T17:08:03.482Z,98091.94
2022-11-21T17:13:06.342Z,98100.13
2022-11-21T17:18:09.066Z,98123.06
2022-11-21T17:23:10.743Z,98113.19
2022-11-21T17:28:13.491Z,98077.44
2022-11-21T17:33:15.273Z,98067.47
2022-11-21T17:38:28.050Z,98000.03
2022-11-21T17:43:35.328Z,98022.00
2022-11-21T17:48:39.695Z,98017.00
2022-11-21T17:53:47.126Z,98013.38
2022-11-21T17:58:52.218Z,98013.34
2022-11-21T18:04:02.528Z,98023.66
2022-11-21T18:09:06.927Z,98025.69
2022-11-21T18:14:11.576Z,98037.09
2022-11-21T18:19:15.241Z,98021.22
2022-11-21T18:24:20.605Z,98025.69
2022-11-21T18:29:40.019Z,98060.72
2022-11-21T18:34:41.974Z,98083.84
2022-11-21T18:39:43.673Z,98090.28
2022-11-21T18:44:58.666Z,98079.53
2022-11-21T18:50:05.627Z,98060.31
2022-11-21T18:55:07.595Z,98055.34
2022-11-21T19:00:35.220Z,98056.19
2022-11-21T19:05:46.099Z,98045.72
2022-11-21T19:10:51.905Z,98035.22
2022-11-21T19:15:55.717Z,98019.91
2022-11-21T19:21:02.809Z,98000.81
2022-11-21T19:26:07.543Z,98003.41
2022-11-21T19:31:12.933Z,98007.03
2022-11-21T19:36:23.503Z,97992.34
2022-11-21T19:41:26.817Z,97984.06
2022-11-21T19:46:36.331Z,97979.59
2022-11-21T19:51:44.283Z,97973.47
2022-11-21T19:57:00.397Z,97966.00
2022-11-21T20:02:29.180Z,97951.53
2022-11-21T20:07:33.992Z,97939.31
2022-11-21T20:12:36.537Z,97931.72
2022-11-21T20:17:38.205Z,97923.78
2022-11-21T20:22:39.846Z,97917.16
2022-11-21T20:27:41.469Z,97917.00
2022-11-21T20:32:43.229Z,97922.31
2022-11-21T20:37:44.880Z,97911.91
2022-11-21T20:42:46.513Z,97900.97
2022-11-21T20:47:48.527Z,97901.25
2022-11-21T20:53:50.265Z,97894.09
2022-11-21T20:58:11.841Z,97900.31
2022-11-21T21:03:13.461Z,97897.81
2022-11-21T21:08:15.069Z,97884.88
2022-11-21T21:13:19.526Z,97880.94
2022-11-21T21:18:21.141Z,97860.97
2022-11-21T21:23:22.772Z,97858.78
2022-11-21T21:28:24.422Z,97855.47
2022-11-21T21:33:26.251Z,97855.13
2022-11-21T21:38:28.951Z,97856.69
2022-11-21T21:43:41.279Z,97855.59
2022-11-21T21:48:47.108Z,97862.59
2022-11-21T21:53:50.518Z,97853.63
2022-11-21T21:58:53.085Z,97857.78
2022-11-21T22:03:59.256Z,97850.47
2022-11-21T22:09:02.286Z,97834.34
2022-11-21T22:14:07.073Z,97839.94
2022-11-21T22:19:21.408Z,97835.19
2022-11-21T22:24:25.850Z,97844.75
2022-11-21T22:29:28.150Z,97844.97
2022-11-21T22:34:32.151Z,97838.22
2022-11-21T22:39:34.120Z,97832.31
2022-11-21T22:44:35.724Z,97816.50
2022-11-21T22:49:37.337Z,97813.88
2022-11-21T22:54:38.976Z,97818.75
2022-11-21T22:59:40.646Z,97800.09
2022-11-21T23:04:42.288Z,97793.63
2022-11-21T23:09:43.929Z,97784.53
2022-11-21T23:14:45.564Z,97792.69
2022-11-21T23:19:47.189Z,97793.28
2022-11-21T23:24:48.811Z,97784.13
2022-11-21T23:29:50.441Z,97774.66
2022-11-21T23:34:52.074Z,97772.19
2022-11-21T23:39:53.730Z,97769.97
2022-11-21T23:44:55.466Z,97768.94
2022-11-21T23:49:57.113Z,97769.53
2022-11-21T23:54:58.751Z,97764.56
